Time;durP1;ratioP1;P1;durP2;ratioP2;P2;SDS_P1;SDS_P2;PMS_P1;PMS_P2;Temp;Humidity;BMP_temperature;BMP_pressure;BME280_temperature;BME280_humidity;BME280_pressure;Samples;Min_cycle;Max_cycle;Signal;HPM_P1;HPM_P2
2022/10/14 00:02:04;;;;;;;20.63;14.30;;;;;;;;;;5054620;28;20445;-48
2022/10/14 00:04:30;;;;;;;18.37;13.30;;;;;;;;;;5054518;28;20429;-47
2022/10/14 00:06:56;;;;;;;22.63;14.37;;;;;;;;;;5053816;28;20910;-48
2022/10/14 00:09:22;;;;;;;19.37;14.27;;;;;;;;;;5054457;28;20421;-46
2022/10/14 00:11:48;;;;;;;21.37;14.63;;;;;;;;;;5054727;28;20452;-46
2022/10/14 00:14:16;;;;;;;21.53;13.13;;;;;;;;;;5054500;28;20455;-47
2022/10/14 00:16:43;;;;;;;19.17;13.67;;;;;;;;;;5054061;28;20498;-45
2022/10/14 00:19:10;;;;;;;17.70;14.10;;;;;;;;;;5052548;28;20511;-47
2022/10/14 00:21:37;;;;;;;18.23;13.60;;;;;;;;;;5054193;28;20545;-47
2022/10/14 00:24:03;;;;;;;21.43;14.03;;;;;;;;;;5054009;28;20453;-47
2022/10/14 00:26:33;;;;;;;24.60;14.70;;;;;;;;;;5054125;28;20838;-46
2022/10/14 00:29:00;;;;;;;19.07;14.07;;;;;;;;;;5053511;28;20421;-46
2022/10/14 00:31:26;;;;;;;24.90;15.00;;;;;;;;;;5054082;28;20462;-48
2022/10/14 00:33:52;;;;;;;19.00;13.03;;;;;;;;;;5053694;28;20408;-47
2022/10/14 00:36:19;;;;;;;24.13;14.90;;;;;;;;;;5053942;28;20411;-47
2022/10/14 00:38:45;;;;;;;21.97;14.80;;;;;;;;;;5053488;28;20485;-47
2022/10/14 00:41:16;;;;;;;20.27;14.43;;;;;;;;;;5053921;28;20399;-45
2022/10/14 00:43:50;;;;;;;27.20;15.63;;;;;;;;;;5053998;28;20379;-46
2022/10/14 00:46:16;;;;;;;34.53;15.77;;;;;;;;;;5053676;28;20409;-46
2022/10/14 00:48:42;;;;;;;27.03;18.03;;;;;;;;;;5053102;28;20431;-47
2022/10/14 00:51:08;;;;;;;28.73;16.00;;;;;;;;;;5053850;28;20703;-48
2022/10/14 00:53:35;;;;;;;21.67;14.43;;;;;;;;;;5053861;28;20408;-47
2022/10/14 00:56:02;;;;;;;23.27;15.37;;;;;;;;;;5053434;28;20407;-45
2022/10/14 00:58:28;;;;;;;21.27;14.63;;;;;;;;;;5053377;28;20550;-46
2022/10/14 01:00:54;;;;;;;26.83;15.70;;;;;;;;;;5052090;28;20429;-44
2022/10/14 01:03:22;;;;;;;24.40;15.30;;;;;;;;;;5051797;28;20427;-44
2022/10/14 01:05:54;;;;;;;21.60;15.07;;;;;;;;;;5052869;28;20439;-42
2022/10/14 01:08:25;;;;;;;20.87;14.47;;;;;;;;;;5052922;28;20474;-42
2022/10/14 01:10:51;;;;;;;21.40;15.80;;;;;;;;;;5053447;28;20773;-42
2022/10/14 01:13:23;;;;;;;25.20;14.90;;;;;;;;;;5053271;28;20412;-42
2022/10/14 01:15:58;;;;;;;24.10;16.57;;;;;;;;;;5053219;28;20415;-42
2022/10/14 01:18:50;;;;;;;24.70;15.77;;;;;;;;;;5052724;28;20470;-43
2022/10/14 01:21:21;;;;;;;24.83;15.47;;;;;;;;;;5053251;28;20486;-42
2022/10/14 01:24:00;;;;;;;21.00;15.50;;;;;;;;;;5053109;28;20404;-43
2022/10/14 01:26:48;;;;;;;23.17;15.17;;;;;;;;;;5053012;28;20399;-43
2022/10/14 01:29:33;;;;;;;24.13;16.10;;;;;;;;;;5052966;28;20428;-43
2022/10/14 01:32:05;;;;;;;25.10;17.40;;;;;;;;;;5052997;28;20526;-42
2022/10/14 01:34:37;;;;;;;28.83;17.27;;;;;;;;;;5052796;28;20817;-42
2022/10/14 01:37:08;;;;;;;27.80;19.77;;;;;;;;;;5052004;28;20459;-42
2022/10/14 01:39:41;;;;;;;26.10;18.10;;;;;;;;;;5052711;28;20418;-42
2022/10/14 01:42:11;;;;;;;27.67;18.10;;;;;;;;;;5052883;28;20402;-42
2022/10/14 01:44:40;;;;;;;25.20;16.80;;;;;;;;;;5052685;28;20882;-43
2022/10/14 01:47:07;;;;;;;24.93;16.90;;;;;;;;;;5051966;28;20405;-42
2022/10/14 01:49:39;;;;;;;22.40;16.30;;;;;;;;;;5052648;28;20511;-43
2022/10/14 01:52:08;;;;;;;20.57;14.60;;;;;;;;;;5052736;28;20404;-42
2022/10/14 01:54:37;;;;;;;23.10;15.90;;;;;;;;;;5052436;28;20857;-43
2022/10/14 01:57:05;;;;;;;21.07;14.13;;;;;;;;;;5051819;28;20530;-42
2022/10/14 01:59:39;;;;;;;23.50;15.67;;;;;;;;;;5052212;28;20921;-42
2022/10/14 02:02:04;;;;;;;21.23;15.10;;;;;;;;;;5052498;28;20452;-42
2022/10/14 02:04:30;;;;;;;21.20;14.77;;;;;;;;;;5050929;28;20435;-43
2022/10/14 02:07:05;;;;;;;19.10;14.00;;;;;;;;;;5051690;28;20406;-43
2022/10/14 02:09:40;;;;;;;27.80;14.87;;;;;;;;;;5052398;28;20830;-42
2022/10/14 02:12:19;;;;;;;19.33;14.23;;;;;;;;;;5052081;28;20498;-42
2022/10/14 02:14:44;;;;;;;18.77;13.73;;;;;;;;;;5052167;28;20393;-46
2022/10/14 02:17:19;;;;;;;21.13;14.40;;;;;;;;;;5051691;28;20453;-42
2022/10/14 02:19:50;;;;;;;16.37;13.13;;;;;;;;;;5052465;28;20427;-42
2022/10/14 02:22:18;;;;;;;19.57;14.60;;;;;;;;;;5052012;28;20403;-43
2022/10/14 02:24:46;;;;;;;19.10;13.10;;;;;;;;;;5051954;28;20953;-42
2022/10/14 02:27:14;;;;;;;17.40;12.80;;;;;;;;;;5051766;28;20800;-42
2022/10/14 02:29:41;;;;;;;15.27;12.00;;;;;;;;;;5051894;28;20426;-43
2022/10/14 02:32:08;;;;;;;15.90;11.60;;;;;;;;;;5051977;28;20461;-42
2022/10/14 02:34:35;;;;;;;15.30;10.87;;;;;;;;;;5051896;28;20479;-42
2022/10/14 02:37:02;;;;;;;14.70;11.93;;;;;;;;;;5051075;28;20910;-42
2022/10/14 02:39:32;;;;;;;15.90;12.00;;;;;;;;;;5051700;28;20921;-42
2022/10/14 02:42:00;;;;;;;20.90;11.40;;;;;;;;;;5052075;28;20443;-42
2022/10/14 02:44:26;;;;;;;13.87;10.60;;;;;;;;;;5051932;28;20422;-43
2022/10/14 02:46:55;;;;;;;16.40;11.83;;;;;;;;;;5051233;28;20403;-43
2022/10/14 02:49:20;;;;;;;14.60;11.67;;;;;;;;;;5051565;28;20513;-42
2022/10/14 02:51:46;;;;;;;15.90;12.70;;;;;;;;;;5051615;28;20931;-42
2022/10/14 02:54:12;;;;;;;17.63;12.23;;;;;;;;;;5051690;28;20895;-42
2022/10/14 02:56:40;;;;;;;19.30;14.33;;;;;;;;;;5051396;28;20756;-42
2022/10/14 02:59:06;;;;;;;17.63;13.63;;;;;;;;;;5051075;28;20448;-43
2022/10/14 03:01:32;;;;;;;20.00;13.47;;;;;;;;;;5051711;28;20405;-45
2022/10/14 03:03:59;;;;;;;18.23;12.60;;;;;;;;;;5051442;28;20420;-43
2022/10/14 03:06:25;;;;;;;20.30;13.97;;;;;;;;;;5051344;28;20491;-42
2022/10/14 03:08:51;;;;;;;16.97;13.23;;;;;;;;;;5051054;28;20519;-43
2022/10/14 03:11:17;;;;;;;17.40;13.50;;;;;;;;;;5051584;28;20381;-44
2022/10/14 03:13:43;;;;;;;18.77;13.83;;;;;;;;;;5051495;28;20407;-42
2022/10/14 03:16:12;;;;;;;17.43;12.07;;;;;;;;;;5051316;28;20829;-42
2022/10/14 03:18:37;;;;;;;18.50;12.97;;;;;;;;;;5051721;28;20452;-43
2022/10/14 03:21:05;;;;;;;16.70;12.50;;;;;;;;;;5051619;28;20772;-46
2022/10/14 03:23:31;;;;;;;17.60;12.97;;;;;;;;;;5052157;28;20431;-42
2022/10/14 03:25:57;;;;;;;14.47;12.20;;;;;;;;;;5055337;28;20453;-43
2022/10/14 03:28:23;;;;;;;18.50;13.00;;;;;;;;;;5054639;28;20440;-42
2022/10/14 03:30:49;;;;;;;16.30;12.40;;;;;;;;;;5055318;28;20473;-42
2022/10/14 03:33:15;;;;;;;14.03;10.47;;;;;;;;;;5055096;28;20889;-43
2022/10/14 03:35:46;;;;;;;12.87;10.50;;;;;;;;;;5055083;28;20402;-45
2022/10/14 03:38:18;;;;;;;15.50;10.87;;;;;;;;;;5054506;28;20469;-42
2022/10/14 03:40:44;;;;;;;13.27;10.10;;;;;;;;;;5055122;28;20891;-42
2022/10/14 03:43:10;;;;;;;11.63;9.93;;;;;;;;;;5055043;28;20520;-42
2022/10/14 03:45:36;;;;;;;18.40;11.50;;;;;;;;;;5054953;28;20399;-43
2022/10/14 03:48:02;;;;;;;13.43;10.27;;;;;;;;;;5054501;28;20510;-42
2022/10/14 03:50:28;;;;;;;12.77;9.73;;;;;;;;;;5054878;28;20403;-43
2022/10/14 03:52:54;;;;;;;11.53;9.20;;;;;;;;;;5054865;28;20929;-44
2022/10/14 03:55:20;;;;;;;10.60;8.90;;;;;;;;;;5054844;28;20417;-45
2022/10/14 03:57:46;;;;;;;12.23;9.80;;;;;;;;;;5054026;28;20976;-42
2022/10/14 04:03:15;;;;;;;11.50;8.60;;;;;;;;;;5054620;28;20420;-42
2022/10/14 04:05:41;;;;;;;10.50;8.93;;;;;;;;;;5054552;28;20404;-42
2022/10/14 04:08:07;;;;;;;12.00;9.43;;;;;;;;;;5053806;28;20449;-43
2022/10/14 04:10:33;;;;;;;11.17;9.30;;;;;;;;;;5054523;28;20457;-44
2022/10/14 04:12:59;;;;;;;9.77;8.40;;;;;;;;;;5054472;28;20410;-43
2022/10/14 04:15:26;;;;;;;11.33;8.30;;;;;;;;;;5054314;28;20412;-45
2022/10/14 04:17:52;;;;;;;10.77;8.80;;;;;;;;;;5053489;28;20454;-44
2022/10/14 04:20:18;;;;;;;9.50;8.03;;;;;;;;;;5054326;28;20377;-42
2022/10/14 04:22:43;;;;;;;9.87;8.87;;;;;;;;;;5054312;28;20485;-42
2022/10/14 04:25:10;;;;;;;10.07;8.37;;;;;;;;;;5054222;28;20414;-42
2022/10/14 04:27:36;;;;;;;9.70;7.67;;;;;;;;;;5053475;28;20797;-42
2022/10/14 04:30:02;;;;;;;8.63;7.53;;;;;;;;;;5054016;28;20402;-42
2022/10/14 04:32:28;;;;;;;9.90;7.57;;;;;;;;;;5054189;28;20431;-42
2022/10/14 04:34:54;;;;;;;9.80;8.43;;;;;;;;;;5054100;28;20400;-42
2022/10/14 04:37:20;;;;;;;8.83;7.93;;;;;;;;;;5053324;28;20974;-42
2022/10/14 04:39:46;;;;;;;9.20;8.30;;;;;;;;;;5054014;28;20424;-43
2022/10/14 04:42:12;;;;;;;8.80;7.90;;;;;;;;;;5053906;28;20411;-43
2022/10/14 04:44:38;;;;;;;8.60;7.70;;;;;;;;;;5053721;28;20398;-46
2022/10/14 04:47:04;;;;;;;10.40;7.07;;;;;;;;;;5053431;28;20559;-43
2022/10/14 04:49:30;;;;;;;8.00;7.30;;;;;;;;;;5053749;28;20943;-42
2022/10/14 04:51:56;;;;;;;11.70;7.70;;;;;;;;;;5053763;28;20376;-42
2022/10/14 04:54:22;;;;;;;7.70;6.90;;;;;;;;;;5053768;28;20408;-42
2022/10/14 04:56:48;;;;;;;8.90;7.50;;;;;;;;;;5053031;28;20431;-43
2022/10/14 04:59:14;;;;;;;7.90;7.10;;;;;;;;;;5053016;28;20779;-43
2022/10/14 05:01:40;;;;;;;9.07;7.17;;;;;;;;;;5053599;28;20396;-42
2022/10/14 05:04:06;;;;;;;9.00;7.40;;;;;;;;;;5053405;28;20426;-42
2022/10/14 05:06:32;;;;;;;6.77;6.17;;;;;;;;;;5053425;28;20411;-42
2022/10/14 05:08:58;;;;;;;7.43;6.70;;;;;;;;;;5052864;28;20419;-43
2022/10/14 05:11:23;;;;;;;7.53;6.80;;;;;;;;;;5053404;28;20920;-45
2022/10/14 05:13:49;;;;;;;9.30;6.77;;;;;;;;;;5053326;28;20915;-42
2022/10/14 05:16:16;;;;;;;7.10;6.50;;;;;;;;;;5053210;28;20447;-42
2022/10/14 05:18:42;;;;;;;9.40;7.13;;;;;;;;;;5052589;28;20462;-42
2022/10/14 05:21:07;;;;;;;7.60;6.80;;;;;;;;;;5053227;28;20404;-42
2022/10/14 05:23:33;;;;;;;12.27;7.63;;;;;;;;;;5053213;28;20407;-42
2022/10/14 05:25:59;;;;;;;7.10;6.30;;;;;;;;;;5053060;28;20445;-42
2022/10/14 05:28:25;;;;;;;7.17;6.47;;;;;;;;;;5052356;28;20404;-42
2022/10/14 05:30:51;;;;;;;8.30;6.90;;;;;;;;;;5052957;28;20406;-43
2022/10/14 05:33:17;;;;;;;8.20;7.40;;;;;;;;;;5053048;28;20931;-43
2022/10/14 05:35:43;;;;;;;10.00;6.20;;;;;;;;;;5052872;28;20930;-45
2022/10/14 05:38:11;;;;;;;8.30;6.90;;;;;;;;;;5052069;28;20462;-45
2022/10/14 05:40:37;;;;;;;7.20;6.60;;;;;;;;;;5052854;28;20404;-42
2022/10/14 05:43:03;;;;;;;9.97;7.13;;;;;;;;;;5052674;28;20492;-43
2022/10/14 05:45:29;;;;;;;9.00;6.70;;;;;;;;;;5052756;28;20763;-42
2022/10/14 05:47:55;;;;;;;7.23;6.50;;;;;;;;;;5050730;28;20438;-43
2022/10/14 05:50:21;;;;;;;8.33;7.03;;;;;;;;;;5052032;28;20451;-44
2022/10/14 05:52:47;;;;;;;7.57;6.87;;;;;;;;;;5052032;28;20401;-44
2022/10/14 05:55:13;;;;;;;7.37;6.67;;;;;;;;;;5052468;28;20411;-45
2022/10/14 05:57:41;;;;;;;8.43;7.17;;;;;;;;;;5051065;28;20461;-45
2022/10/14 06:00:07;;;;;;;7.63;6.83;;;;;;;;;;5052031;28;20391;-42
2022/10/14 06:02:33;;;;;;;8.07;7.27;;;;;;;;;;5051614;28;20473;-45
2022/10/14 06:04:59;;;;;;;12.00;7.20;;;;;;;;;;5051828;28;20856;-42
2022/10/14 06:07:25;;;;;;;7.43;6.70;;;;;;;;;;5051141;28;20404;-42
2022/10/14 06:09:51;;;;;;;8.00;7.20;;;;;;;;;;5051336;28;20929;-42
2022/10/14 06:12:17;;;;;;;8.57;7.30;;;;;;;;;;5052101;28;20483;-43
2022/10/14 06:14:43;;;;;;;16.03;8.23;;;;;;;;;;5052084;28;20413;-42
2022/10/14 06:17:09;;;;;;;11.93;8.03;;;;;;;;;;5051487;28;20473;-43
2022/10/14 06:19:35;;;;;;;8.87;7.97;;;;;;;;;;5051898;28;20426;-43
2022/10/14 06:22:01;;;;;;;9.10;7.80;;;;;;;;;;5052137;28;20395;-43
2022/10/14 06:24:27;;;;;;;8.97;8.07;;;;;;;;;;5052018;28;20449;-44
2022/10/14 06:26:53;;;;;;;8.50;7.70;;;;;;;;;;5051784;28;20916;-46
2022/10/14 06:29:19;;;;;;;10.57;8.10;;;;;;;;;;5051472;28;20431;-42
2022/10/14 06:31:45;;;;;;;9.70;8.70;;;;;;;;;;5051970;28;20408;-42
2022/10/14 06:34:11;;;;;;;8.70;7.90;;;;;;;;;;5051897;28;20408;-42
2022/10/14 06:36:37;;;;;;;9.57;7.00;;;;;;;;;;5051666;28;20699;-43
2022/10/14 06:39:03;;;;;;;7.57;6.77;;;;;;;;;;5050358;28;20951;-43
2022/10/14 06:41:31;;;;;;;7.93;7.17;;;;;;;;;;5050551;28;20409;-42
2022/10/14 06:43:57;;;;;;;9.93;6.83;;;;;;;;;;5051664;28;20389;-43
2022/10/14 06:46:24;;;;;;;7.33;6.53;;;;;;;;;;5051586;28;20412;-42
2022/10/14 06:48:50;;;;;;;6.93;6.33;;;;;;;;;;5051194;28;20416;-42
2022/10/14 06:51:16;;;;;;;7.77;7.07;;;;;;;;;;5051546;28;20427;-41
2022/10/14 06:53:42;;;;;;;7.70;7.00;;;;;;;;;;5051725;28;20411;-43
2022/10/14 06:56:10;;;;;;;7.90;7.13;;;;;;;;;;5051480;28;20415;-42
2022/10/14 06:58:36;;;;;;;8.10;7.40;;;;;;;;;;5051682;28;20456;-42
2022/10/14 07:01:06;;;;;;;8.37;6.40;;;;;;;;;;5055696;28;20911;-42
2022/10/14 07:03:35;;;;;;;6.47;5.90;;;;;;;;;;5055806;28;20436;-45
2022/10/14 07:06:08;;;;;;;8.90;6.40;;;;;;;;;;5055223;28;20499;-42
2022/10/14 07:08:34;;;;;;;8.57;5.70;;;;;;;;;;5054808;28;20470;-42
2022/10/14 07:11:00;;;;;;;7.40;6.70;;;;;;;;;;5069531;28;20413;-42
2022/10/14 07:13:26;;;;;;;6.80;6.20;;;;;;;;;;5075417;28;20487;-42
2022/10/14 07:15:52;;;;;;;7.87;7.17;;;;;;;;;;5075200;28;20923;-42
2022/10/14 07:18:18;;;;;;;7.43;6.57;;;;;;;;;;5074738;28;20470;-42
2022/10/14 07:20:45;;;;;;;7.63;6.57;;;;;;;;;;5075190;28;20505;-42
2022/10/14 07:23:11;;;;;;;6.27;5.63;;;;;;;;;;5075609;28;20493;-42
2022/10/14 07:25:37;;;;;;;5.70;5.20;;;;;;;;;;5075086;28;20837;-42
2022/10/14 07:28:03;;;;;;;5.43;4.97;;;;;;;;;;5074568;28;20420;-42
2022/10/14 07:30:30;;;;;;;6.30;5.80;;;;;;;;;;5074912;28;20779;-41
2022/10/14 07:32:56;;;;;;;5.20;4.80;;;;;;;;;;5075446;28;20437;-42
2022/10/14 07:35:22;;;;;;;4.90;4.43;;;;;;;;;;5074893;28;20383;-42
2022/10/14 07:37:49;;;;;;;5.07;4.67;;;;;;;;;;5074196;28;20962;-42
2022/10/14 07:40:15;;;;;;;4.57;4.17;;;;;;;;;;5074746;28;20465;-42
2022/10/14 07:42:41;;;;;;;4.90;4.50;;;;;;;;;;5074956;28;20407;-42
2022/10/14 07:45:08;;;;;;;5.90;4.30;;;;;;;;;;5074630;28;20765;-43
2022/10/14 07:47:33;;;;;;;4.50;4.10;;;;;;;;;;5074323;28;20408;-42
2022/10/14 07:50:01;;;;;;;4.67;4.27;;;;;;;;;;5074338;28;20425;-42
2022/10/14 07:52:27;;;;;;;4.73;4.23;;;;;;;;;;5074592;28;20909;-42
2022/10/14 07:54:53;;;;;;;3.70;3.40;;;;;;;;;;5074515;28;20455;-42
2022/10/14 07:57:19;;;;;;;6.23;5.10;;;;;;;;;;5074057;28;20568;-42
2022/10/14 07:59:45;;;;;;;4.30;3.87;;;;;;;;;;5074322;28;20495;-42
2022/10/14 08:02:12;;;;;;;4.20;3.60;;;;;;;;;;5074825;28;20534;-42
2022/10/14 08:04:38;;;;;;;3.93;3.63;;;;;;;;;;5074443;28;20478;-44
2022/10/14 08:07:04;;;;;;;5.13;4.43;;;;;;;;;;5073726;28;20412;-42
2022/10/14 08:09:30;;;;;;;7.13;5.10;;;;;;;;;;5073973;28;20402;-42
2022/10/14 08:11:56;;;;;;;5.63;5.03;;;;;;;;;;5074343;28;20450;-42
2022/10/14 08:14:22;;;;;;;4.70;4.30;;;;;;;;;;5074191;28;20790;-42
2022/10/14 08:16:48;;;;;;;7.03;4.10;;;;;;;;;;5073967;28;20415;-42
2022/10/14 08:19:14;;;;;;;3.50;3.17;;;;;;;;;;5073735;28;20920;-42
2022/10/14 08:21:40;;;;;;;4.20;3.50;;;;;;;;;;5074093;28;20435;-42
2022/10/14 08:24:06;;;;;;;3.40;3.10;;;;;;;;;;5074147;28;20889;-42
2022/10/14 08:26:34;;;;;;;3.40;3.10;;;;;;;;;;5073791;28;20390;-42
2022/10/14 08:29:01;;;;;;;3.00;2.80;;;;;;;;;;5073603;28;20779;-42
2022/10/14 08:31:27;;;;;;;3.20;3.00;;;;;;;;;;5073924;28;20434;-42
2022/10/14 08:33:53;;;;;;;2.77;2.57;;;;;;;;;;5073714;28;20879;-42
2022/10/14 08:36:20;;;;;;;2.67;2.50;;;;;;;;;;5073845;28;20555;-42
2022/10/14 08:38:46;;;;;;;2.60;2.40;;;;;;;;;;5073421;28;20455;-42
2022/10/14 08:41:12;;;;;;;2.33;2.13;;;;;;;;;;5061499;28;20409;-42
2022/10/14 08:43:47;;;;;;;2.83;2.47;;;;;;;;;;5053578;28;20417;-42
2022/10/14 08:46:36;;;;;;;2.73;2.53;;;;;;;;;;5053753;28;20458;-42
2022/10/14 08:49:06;;;;;;;2.70;2.47;;;;;;;;;;5050099;28;20416;-44
2022/10/14 08:51:32;;;;;;;4.63;2.73;;;;;;;;;;5053823;28;20897;-42
2022/10/14 08:54:04;;;;;;;3.53;2.70;;;;;;;;;;5053428;28;20527;-42
2022/10/14 08:56:30;;;;;;;3.60;2.60;;;;;;;;;;5053419;28;20424;-44
2022/10/14 08:59:00;;;;;;;5.13;2.63;;;;;;;;;;5052692;28;20461;-42
2022/10/14 09:01:31;;;;;;;2.70;2.50;;;;;;;;;;5053501;28;20418;-41
2022/10/14 09:04:01;;;;;;;2.27;2.13;;;;;;;;;;5053206;28;20917;-42
2022/10/14 09:06:31;;;;;;;2.60;2.50;;;;;;;;;;5053545;28;20441;-44
2022/10/14 09:09:04;;;;;;;2.40;2.30;;;;;;;;;;5053212;28;20460;-45
2022/10/14 09:11:32;;;;;;;2.57;2.37;;;;;;;;;;5053116;28;20413;-43
2022/10/14 09:13:59;;;;;;;1.97;1.87;;;;;;;;;;5053046;28;20459;-44
2022/10/14 09:16:27;;;;;;;2.37;2.27;;;;;;;;;;5053072;28;20492;-42
2022/10/14 09:18:54;;;;;;;2.30;2.10;;;;;;;;;;5053421;28;20459;-44
2022/10/14 09:21:29;;;;;;;2.10;2.00;;;;;;;;;;5052335;28;20410;-44
2022/10/14 09:24:01;;;;;;;2.87;2.50;;;;;;;;;;5052685;28;20426;-44
2022/10/14 09:26:34;;;;;;;2.43;2.20;;;;;;;;;;5052792;28;20889;-44
2022/10/14 09:29:01;;;;;;;1.83;1.70;;;;;;;;;;5052607;28;20397;-44
2022/10/14 09:31:27;;;;;;;1.90;1.80;;;;;;;;;;5052931;28;20389;-44
2022/10/14 09:33:54;;;;;;;2.00;1.83;;;;;;;;;;5052749;28;20409;-44
2022/10/14 09:36:20;;;;;;;1.70;1.60;;;;;;;;;;5052617;28;20411;-44
2022/10/14 09:38:53;;;;;;;1.53;1.43;;;;;;;;;;5052171;28;20493;-43
2022/10/14 09:41:21;;;;;;;2.33;2.00;;;;;;;;;;5052609;28;20385;-44
2022/10/14 09:44:06;;;;;;;1.67;1.57;;;;;;;;;;5040929;28;20950;-44
2022/10/14 09:46:32;;;;;;;2.03;1.93;;;;;;;;;;5042373;28;20463;-44
2022/10/14 09:48:58;;;;;;;1.70;1.60;;;;;;;;;;5052247;28;20458;-43
2022/10/14 09:51:32;;;;;;;3.77;1.57;;;;;;;;;;5052596;28;20412;-44
2022/10/14 09:54:00;;;;;;;1.70;1.60;;;;;;;;;;5052287;28;20408;-44
2022/10/14 09:56:35;;;;;;;2.53;1.40;;;;;;;;;;5052049;28;20393;-43
2022/10/14 09:59:02;;;;;;;1.43;1.33;;;;;;;;;;5051655;28;20470;-43
2022/10/14 10:01:29;;;;;;;1.77;1.67;;;;;;;;;;5052013;28;20402;-44
2022/10/14 10:03:55;;;;;;;1.50;1.40;;;;;;;;;;5052341;28;20414;-44
2022/10/14 10:06:26;;;;;;;1.50;1.40;;;;;;;;;;5052013;28;20401;-44
2022/10/14 10:08:54;;;;;;;1.50;1.40;;;;;;;;;;5051716;28;20433;-44
2022/10/14 10:11:32;;;;;;;1.50;1.40;;;;;;;;;;5052168;28;20520;-44
2022/10/14 10:13:58;;;;;;;1.90;1.80;;;;;;;;;;5052014;28;20415;-44
2022/10/14 10:16:24;;;;;;;1.33;1.23;;;;;;;;;;5051779;28;20886;-44
2022/10/14 10:18:51;;;;;;;2.90;1.60;;;;;;;;;;5051355;28;20537;-44
2022/10/14 10:21:19;;;;;;;3.17;1.63;;;;;;;;;;5052026;28;20826;-44
2022/10/14 10:23:50;;;;;;;1.50;1.40;;;;;;;;;;5051983;28;20410;-44
2022/10/14 10:26:24;;;;;;;4.40;1.50;;;;;;;;;;5051653;28;20991;-44
2022/10/14 10:28:51;;;;;;;1.70;1.60;;;;;;;;;;5051263;28;20774;-44
2022/10/14 10:31:36;;;;;;;1.30;1.20;;;;;;;;;;5051832;28;20433;-44
2022/10/14 10:34:20;;;;;;;2.10;1.80;;;;;;;;;;5051686;28;20401;-43
2022/10/14 10:37:00;;;;;;;1.77;1.67;;;;;;;;;;5051186;28;20777;-44
2022/10/14 10:39:32;;;;;;;1.80;1.70;;;;;;;;;;5051274;28;20427;-44
2022/10/14 10:42:07;;;;;;;1.83;1.73;;;;;;;;;;5051741;28;20448;-44
2022/10/14 10:44:40;;;;;;;1.80;1.70;;;;;;;;;;5051502;28;20420;-43
2022/10/14 10:47:06;;;;;;;1.97;1.87;;;;;;;;;;5051171;28;20701;-43
2022/10/14 10:49:46;;;;;;;1.90;1.80;;;;;;;;;;5051043;28;20430;-43
2022/10/14 10:52:21;;;;;;;2.90;2.00;;;;;;;;;;5051640;28;20370;-43
2022/10/14 10:54:47;;;;;;;2.23;2.13;;;;;;;;;;5068254;28;20453;-44
2022/10/14 10:57:23;;;;;;;1.60;1.50;;;;;;;;;;5071026;28;20395;-44
2022/10/14 10:59:49;;;;;;;2.10;2.00;;;;;;;;;;5071079;28;20784;-44
2022/10/14 11:02:18;;;;;;;2.20;2.00;;;;;;;;;;5071428;28;20368;-44
2022/10/14 11:04:49;;;;;;;4.20;2.13;;;;;;;;;;5071145;28;20463;-44
2022/10/14 11:13:05;;;;;;;1.90;1.80;;;;;;;;;;5071281;28;20367;-44
2022/10/14 11:15:52;;;;;;;2.37;2.27;;;;;;;;;;5071184;28;20380;-43
2022/10/14 11:18:24;;;;;;;3.00;2.60;;;;;;;;;;5070260;28;20437;-44
2022/10/14 11:20:56;;;;;;;2.00;1.80;;;;;;;;;;5071442;28;20882;-44
2022/10/14 11:23:22;;;;;;;3.27;2.70;;;;;;;;;;5071142;28;20426;-44
2022/10/14 11:26:05;;;;;;;3.33;3.13;;;;;;;;;;5071051;28;20378;-43
2022/10/14 11:28:31;;;;;;;2.83;2.53;;;;;;;;;;5070626;28;20434;-43
2022/10/14 11:31:05;;;;;;;3.40;2.70;;;;;;;;;;5071048;28;20409;-43
2022/10/14 11:33:43;;;;;;;3.37;3.07;;;;;;;;;;5071050;28;20481;-43
2022/10/14 11:36:09;;;;;;;5.67;3.37;;;;;;;;;;5071381;28;20400;-44
2022/10/14 11:39:00;;;;;;;3.90;3.43;;;;;;;;;;5070409;28;20474;-43
2022/10/14 11:41:41;;;;;;;4.30;3.87;;;;;;;;;;5071125;28;20371;-43
2022/10/14 11:44:19;;;;;;;6.20;4.07;;;;;;;;;;5070985;28;20408;-43
2022/10/14 11:46:47;;;;;;;4.10;3.73;;;;;;;;;;5074517;28;20407;-43
2022/10/14 11:49:22;;;;;;;5.30;4.27;;;;;;;;;;5074214;28;20561;-43
2022/10/14 11:51:51;;;;;;;5.57;4.97;;;;;;;;;;5074654;28;20438;-43
2022/10/14 11:54:19;;;;;;;4.80;4.20;;;;;;;;;;5074461;28;20426;-43
2022/10/14 11:56:54;;;;;;;5.37;4.40;;;;;;;;;;5074335;28;20379;-43
2022/10/14 11:59:25;;;;;;;6.77;4.87;;;;;;;;;;5073665;28;20504;-44
2022/10/14 12:01:53;;;;;;;5.40;4.47;;;;;;;;;;5074695;28;20378;-43
2022/10/14 12:04:24;;;;;;;5.20;4.63;;;;;;;;;;5074076;28;20918;-43
2022/10/14 12:06:54;;;;;;;8.43;4.40;;;;;;;;;;5074130;28;20967;-43
2022/10/14 12:09:27;;;;;;;5.87;4.87;;;;;;;;;;5073935;28;20396;-43
2022/10/14 12:12:03;;;;;;;6.07;5.00;;;;;;;;;;5074488;28;20817;-44
2022/10/14 12:14:32;;;;;;;7.17;4.87;;;;;;;;;;5074136;28;20435;-43
2022/10/14 12:16:58;;;;;;;5.43;4.50;;;;;;;;;;5073780;28;20784;-44
2022/10/14 12:19:26;;;;;;;6.93;5.30;;;;;;;;;;5073972;28;20442;-43
2022/10/14 12:22:01;;;;;;;7.60;5.80;;;;;;;;;;5074294;28;20391;-43
2022/10/14 12:24:33;;;;;;;6.03;5.27;;;;;;;;;;5073858;28;20412;-43
2022/10/14 12:27:06;;;;;;;11.33;6.10;;;;;;;;;;5073863;28;20417;-44
2022/10/14 12:29:41;;;;;;;6.47;5.80;;;;;;;;;;5073323;28;20774;-44
2022/10/14 12:32:19;;;;;;;10.70;5.40;;;;;;;;;;5074016;28;20404;-44
2022/10/14 12:34:46;;;;;;;7.27;5.80;;;;;;;;;;5073868;28;20928;-44
2022/10/14 12:37:24;;;;;;;7.30;5.27;;;;;;;;;;5074280;28;20418;-44
2022/10/14 12:39:51;;;;;;;8.40;5.30;;;;;;;;;;5073603;28;20464;-43
2022/10/14 12:42:18;;;;;;;10.63;5.40;;;;;;;;;;5073087;28;20763;-43
2022/10/14 12:44:47;;;;;;;5.83;5.33;;;;;;;;;;5072380;28;20410;-43
2022/10/14 12:47:21;;;;;;;6.70;5.27;;;;;;;;;;5073109;28;20388;-43
2022/10/14 12:49:49;;;;;;;6.10;5.43;;;;;;;;;;5073119;28;20956;-44
2022/10/14 12:52:20;;;;;;;6.77;5.90;;;;;;;;;;5073584;28;20856;-44
2022/10/14 12:54:48;;;;;;;9.40;5.27;;;;;;;;;;5073561;28;20389;-43
2022/10/14 12:57:26;;;;;;;6.77;6.00;;;;;;;;;;5072026;28;20473;-44
2022/10/14 12:59:53;;;;;;;6.73;5.70;;;;;;;;;;5073328;28;20779;-44
2022/10/14 13:02:31;;;;;;;7.00;5.97;;;;;;;;;;5073383;28;20937;-44
2022/10/14 13:04:58;;;;;;;8.83;6.20;;;;;;;;;;5073476;28;20798;-44
2022/10/14 13:07:30;;;;;;;7.33;5.60;;;;;;;;;;5072741;28;20493;-44
2022/10/14 13:09:57;;;;;;;6.63;6.03;;;;;;;;;;5073058;28;20465;-45
2022/10/14 13:12:23;;;;;;;7.43;5.70;;;;;;;;;;5073396;28;20381;-44
2022/10/14 13:14:59;;;;;;;9.30;6.80;;;;;;;;;;5073051;28;20400;-43
2022/10/14 13:17:28;;;;;;;8.07;5.30;;;;;;;;;;5072365;28;20420;-44
2022/10/14 13:19:54;;;;;;;6.53;5.93;;;;;;;;;;5072872;28;20421;-44
2022/10/14 13:22:30;;;;;;;6.07;5.50;;;;;;;;;;5073146;28;20415;-44
2022/10/14 13:25:16;;;;;;;8.33;5.53;;;;;;;;;;5073297;28;20458;-44
2022/10/14 13:27:54;;;;;;;6.13;5.50;;;;;;;;;;5071864;28;20512;-43
2022/10/14 13:30:23;;;;;;;7.37;5.20;;;;;;;;;;5073055;28;20391;-44
2022/10/14 13:32:49;;;;;;;6.67;5.00;;;;;;;;;;5072942;28;20404;-44
2022/10/14 13:35:18;;;;;;;5.80;5.20;;;;;;;;;;5071539;28;20807;-44
2022/10/14 13:37:59;;;;;;;9.60;5.53;;;;;;;;;;5071848;28;20430;-44
2022/10/14 13:40:35;;;;;;;5.83;5.03;;;;;;;;;;5072533;28;20437;-44
2022/10/14 13:43:19;;;;;;;5.23;4.73;;;;;;;;;;5072883;28;20719;-44
2022/10/14 13:45:48;;;;;;;5.07;4.57;;;;;;;;;;5072543;28;20534;-44
2022/10/14 13:48:16;;;;;;;4.70;4.30;;;;;;;;;;5071796;28;20447;-44
2022/10/14 13:50:43;;;;;;;5.07;3.90;;;;;;;;;;5072205;28;20896;-44
2022/10/14 13:53:20;;;;;;;5.00;4.50;;;;;;;;;;5072766;28;20379;-44
2022/10/14 13:55:47;;;;;;;6.47;4.50;;;;;;;;;;5072294;28;20390;-44
2022/10/14 13:58:14;;;;;;;4.73;4.07;;;;;;;;;;5071484;28;20469;-43
2022/10/14 14:00:49;;;;;;;4.73;4.30;;;;;;;;;;5072307;28;20415;-44
2022/10/14 14:03:19;;;;;;;3.93;3.60;;;;;;;;;;5071716;28;20467;-44
2022/10/14 14:05:45;;;;;;;4.63;4.17;;;;;;;;;;5072063;28;20409;-44
2022/10/14 14:08:15;;;;;;;4.27;3.80;;;;;;;;;;5071000;28;20429;-44
2022/10/14 14:10:50;;;;;;;3.60;3.30;;;;;;;;;;5071989;28;20441;-44
2022/10/14 14:13:16;;;;;;;4.10;3.80;;;;;;;;;;5071758;28;20834;-45
2022/10/14 14:15:42;;;;;;;4.60;3.37;;;;;;;;;;5071556;28;20804;-44
2022/10/14 14:18:27;;;;;;;3.63;3.33;;;;;;;;;;5071324;28;20880;-44
2022/10/14 14:20:57;;;;;;;3.77;3.47;;;;;;;;;;5071936;28;20415;-44
2022/10/14 14:23:24;;;;;;;3.90;3.60;;;;;;;;;;5072106;28;20911;-44
2022/10/14 14:25:50;;;;;;;3.37;3.10;;;;;;;;;;5071704;28;20436;-44
2022/10/14 14:28:17;;;;;;;3.93;3.40;;;;;;;;;;5071728;28;20445;-44
2022/10/14 14:30:49;;;;;;;4.03;3.63;;;;;;;;;;5071571;28;20825;-44
2022/10/14 14:33:17;;;;;;;4.00;3.60;;;;;;;;;;5072005;28;20489;-43
2022/10/14 14:35:52;;;;;;;6.70;3.73;;;;;;;;;;5071634;28;20388;-44
2022/10/14 14:38:28;;;;;;;4.67;4.27;;;;;;;;;;5070952;28;20516;-44
2022/10/14 14:41:04;;;;;;;3.37;3.17;;;;;;;;;;5071755;28;20375;-44
2022/10/14 14:43:31;;;;;;;5.57;3.40;;;;;;;;;;5071604;28;20434;-44
2022/10/14 14:45:58;;;;;;;3.60;3.30;;;;;;;;;;5071543;28;20904;-44
2022/10/14 14:48:24;;;;;;;3.50;3.17;;;;;;;;;;5071102;28;20432;-44
2022/10/14 14:50:50;;;;;;;3.80;3.50;;;;;;;;;;5071252;28;20406;-44
2022/10/14 14:53:19;;;;;;;3.23;2.93;;;;;;;;;;5071802;28;20416;-44
2022/10/14 14:55:54;;;;;;;3.53;3.23;;;;;;;;;;5071466;28;20489;-44